AIRPORT_AIRPORT_METAR
METAR FOR GCLA
ADDS - METARS form results

(1559 UTC 18 August 2019)
Data provider http://aviationweather.gov/metar/data/
 
METAR text: GCLA 181530Z 03014KT 360V060 CAVOK 26/21 Q1016
Conditions at: GCLA (LA PALMA AIRPORT, ES) observed 1530 UTC 18 August 2019
Temperature: 26.0°C (79°F)
Dewpoint: 21.0°C (70°F) [RH = 74%]
Pressure (altimeter): 30.00 inches Hg (1016.0 mb)
Winds: from the NNE (30 degrees) at 16 MPH (14 knots; 7.2 m/s)
Visibility: 6 or more miles (10+ km)
Ceiling: ceiling and visibility are OK
Clouds: unknown
Weather: no significant weather observed at this time

METAR text: GCLA 181500Z 03014KT 360V060 CAVOK 26/21 Q1016
Conditions at: GCLA (LA PALMA AIRPORT, ES) observed 1500 UTC 18 August 2019
Temperature: 26.0°C (79°F)
Dewpoint: 21.0°C (70°F) [RH = 74%]
Pressure (altimeter): 30.00 inches Hg (1016.0 mb)
Winds: from the NNE (30 degrees) at 16 MPH (14 knots; 7.2 m/s)
Visibility: 6 or more miles (10+ km)
Ceiling: ceiling and visibility are OK
Clouds: unknown
Weather: no significant weather observed at this time

Forecast for: GCLA (LA PALMA AIRPORT, ES)
Text: TAF GCLA 181400Z 1815/1915 02015KT CAVOK TX29/1914Z TN22/1905Z
Forecast period: 1500 UTC 18 August 2019 to 1500 UTC 19 August 2019
Forecast type: FROM: standard forecast or significant change
Winds: from the NNE (20 degrees) at 17 MPH (15 knots; 7.7 m/s)
Visibility: 6 or more miles 10+ km)
Ceiling: unknown
Clouds: missing
Weather: no significant weather forecast for this period

 AIRPORT_AIRPORT_MAP

 AIRPORT_RUNWAY_INFO
AIRPORT_RUNWAY 01 AIRPORT_RUNWAY_LENGTH 7218 ft AIRPORT_RUNWAY_WIDTH 148 ft
AIRPORT_RUNWAY_ELEVATION 103 ft AIRPORT_RUNWAY_THRESHOLD 0 ft AIRPORT_RUNWAY_HEADING 359
AIRPORT_RUNWAY 19 AIRPORT_RUNWAY_LENGTH 7218 ft AIRPORT_RUNWAY_WIDTH 148 ft
AIRPORT_RUNWAY_ELEVATION 65 ft AIRPORT_RUNWAY_THRESHOLD 0 ft AIRPORT_RUNWAY_HEADING 179

 AIRPORT_AIRPORT_FREQUENCIES
AIRPORT_AIRPORT_NAVAIDS_TYPE APP AIRPORT_AIRPORT_NAVAIDS_NAME CANARIAS A AIRPORT_AIRPORT_NAVAIDS_FREQ 126.1 MHZ
AIRPORT_AIRPORT_NAVAIDS_TYPE ATIS AIRPORT_AIRPORT_NAVAIDS_NAME INFO AIRPORT_AIRPORT_NAVAIDS_FREQ 118.6 MHZ
AIRPORT_AIRPORT_NAVAIDS_TYPE GND AIRPORT_AIRPORT_NAVAIDS_NAME GND AIRPORT_AIRPORT_NAVAIDS_FREQ 121.8 MHZ
AIRPORT_AIRPORT_NAVAIDS_TYPE TWR AIRPORT_AIRPORT_NAVAIDS_NAME TWR AIRPORT_AIRPORT_NAVAIDS_FREQ 118.9 MHZ

 AIRPORT_AIRPORT_NAVAIDS
AIRPORT_AIRPORT_NAVAIDS_TYPE DME AIRPORT_AIRPORT_NAVAIDS_NAME La Palma AIRPORT_AIRPORT_NAVAIDS_FREQ 112400 KHZ
AIRPORT_AIRPORT_NAVAIDS_TYPE NDB AIRPORT_AIRPORT_NAVAIDS_NAME La Palma AIRPORT_AIRPORT_NAVAIDS_FREQ 389 KHZ



Copyright © 2005-2019 - Virtuel Air Alsace - Tous droits réservés